sensor_id;sensor_type;location;lat;lon;timestamp;temperature;humidity
9215;DHT22;4642;51.364;6.788;2022-10-13T00:01:47;7.90;99.90
9215;DHT22;4642;51.364;6.788;2022-10-13T00:04:13;7.90;99.90
9215;DHT22;4642;51.364;6.788;2022-10-13T00:06:38;7.90;99.90
9215;DHT22;4642;51.364;6.788;2022-10-13T00:09:04;7.90;99.90
9215;DHT22;4642;51.364;6.788;2022-10-13T00:11:29;7.90;99.90
9215;DHT22;4642;51.364;6.788;2022-10-13T00:13:57;8.00;99.90
9215;DHT22;4642;51.364;6.788;2022-10-13T00:16:24;7.90;99.90
9215;DHT22;4642;51.364;6.788;2022-10-13T00:18:50;8.00;99.90
9215;DHT22;4642;51.364;6.788;2022-10-13T00:21:19;8.00;99.90
9215;DHT22;4642;51.364;6.788;2022-10-13T00:23:45;8.00;99.90
9215;DHT22;4642;51.364;6.788;2022-10-13T00:26:12;8.00;99.90
9215;DHT22;4642;51.364;6.788;2022-10-13T00:28:39;8.00;99.90
9215;DHT22;4642;51.364;6.788;2022-10-13T00:31:25;8.00;99.90
9215;DHT22;4642;51.364;6.788;2022-10-13T00:33:51;8.00;99.90
9215;DHT22;4642;51.364;6.788;2022-10-13T00:36:21;8.00;99.90
9215;DHT22;4642;51.364;6.788;2022-10-13T00:38:47;8.00;99.90
9215;DHT22;4642;51.364;6.788;2022-10-13T00:41:13;8.10;99.90
9215;DHT22;4642;51.364;6.788;2022-10-13T00:44:00;8.00;99.90
9215;DHT22;4642;51.364;6.788;2022-10-13T00:46:29;8.10;99.90
9215;DHT22;4642;51.364;6.788;2022-10-13T00:49:11;8.10;99.90
9215;DHT22;4642;51.364;6.788;2022-10-13T00:51:40;8.10;99.90
9215;DHT22;4642;51.364;6.788;2022-10-13T00:54:10;8.10;99.90
9215;DHT22;4642;51.364;6.788;2022-10-13T00:56:38;8.20;99.90
9215;DHT22;4642;51.364;6.788;2022-10-13T00:59:10;8.20;99.90
9215;DHT22;4642;51.364;6.788;2022-10-13T01:01:37;8.20;99.90
9215;DHT22;4642;51.364;6.788;2022-10-13T01:04:02;8.20;99.90
9215;DHT22;4642;51.364;6.788;2022-10-13T01:06:28;8.20;99.90
9215;DHT22;4642;51.364;6.788;2022-10-13T01:08:54;8.20;99.90
9215;DHT22;4642;51.364;6.788;2022-10-13T01:17:32;8.30;99.90
9215;DHT22;4642;51.364;6.788;2022-10-13T01:20:31;8.30;99.90
9215;DHT22;4642;51.364;6.788;2022-10-13T01:28:47;8.40;99.90
9215;DHT22;4642;51.364;6.788;2022-10-13T01:37:09;8.50;99.90
9215;DHT22;4642;51.364;6.788;2022-10-13T01:39:28;8.60;99.90
9215;DHT22;4642;51.364;6.788;2022-10-13T01:42:03;8.70;99.90
9215;DHT22;4642;51.364;6.788;2022-10-13T01:44:39;8.70;99.90
9215;DHT22;4642;51.364;6.788;2022-10-13T01:47:06;8.70;99.90
9215;DHT22;4642;51.364;6.788;2022-10-13T01:49:34;8.70;99.90
9215;DHT22;4642;51.364;6.788;2022-10-13T01:52:05;8.80;99.90
9215;DHT22;4642;51.364;6.788;2022-10-13T01:54:32;8.80;99.90
9215;DHT22;4642;51.364;6.788;2022-10-13T01:56:57;8.80;99.90
9215;DHT22;4642;51.364;6.788;2022-10-13T01:59:24;8.90;99.90
9215;DHT22;4642;51.364;6.788;2022-10-13T02:01:59;9.00;99.90
9215;DHT22;4642;51.364;6.788;2022-10-13T02:07:31;9.10;99.90
9215;DHT22;4642;51.364;6.788;2022-10-13T02:10:11;9.10;99.90
9215;DHT22;4642;51.364;6.788;2022-10-13T02:12:51;9.10;99.90
9215;DHT22;4642;51.364;6.788;2022-10-13T02:15:21;9.10;99.90
9215;DHT22;4642;51.364;6.788;2022-10-13T02:17:50;9.20;99.90
9215;DHT22;4642;51.364;6.788;2022-10-13T02:20:17;9.20;99.90
9215;DHT22;4642;51.364;6.788;2022-10-13T02:22:45;9.30;99.90
9215;DHT22;4642;51.364;6.788;2022-10-13T02:25:12;9.30;99.90
9215;DHT22;4642;51.364;6.788;2022-10-13T02:27:37;9.20;99.90
9215;DHT22;4642;51.364;6.788;2022-10-13T02:30:03;9.20;99.90
9215;DHT22;4642;51.364;6.788;2022-10-13T02:32:30;9.30;99.90
9215;DHT22;4642;51.364;6.788;2022-10-13T02:34:56;9.70;99.90
9215;DHT22;4642;51.364;6.788;2022-10-13T02:37:21;9.50;99.90
9215;DHT22;4642;51.364;6.788;2022-10-13T02:39:49;9.40;99.90
9215;DHT22;4642;51.364;6.788;2022-10-13T02:42:15;9.40;99.90
9215;DHT22;4642;51.364;6.788;2022-10-13T02:44:41;9.50;99.90
9215;DHT22;4642;51.364;6.788;2022-10-13T02:47:06;9.50;99.90
9215;DHT22;4642;51.364;6.788;2022-10-13T02:49:35;9.60;99.90
9215;DHT22;4642;51.364;6.788;2022-10-13T02:52:00;9.60;99.90
9215;DHT22;4642;51.364;6.788;2022-10-13T02:54:26;9.60;99.90
9215;DHT22;4642;51.364;6.788;2022-10-13T02:56:52;9.60;99.90
9215;DHT22;4642;51.364;6.788;2022-10-13T02:59:17;9.70;99.90
9215;DHT22;4642;51.364;6.788;2022-10-13T03:01:43;9.70;99.90
9215;DHT22;4642;51.364;6.788;2022-10-13T03:04:09;9.70;99.90
9215;DHT22;4642;51.364;6.788;2022-10-13T03:06:35;9.60;99.90
9215;DHT22;4642;51.364;6.788;2022-10-13T03:09:01;9.70;99.90
9215;DHT22;4642;51.364;6.788;2022-10-13T03:11:27;9.70;99.90
9215;DHT22;4642;51.364;6.788;2022-10-13T03:13:55;9.70;99.90
9215;DHT22;4642;51.364;6.788;2022-10-13T03:16:21;9.80;99.90
9215;DHT22;4642;51.364;6.788;2022-10-13T03:18:46;9.80;99.90
9215;DHT22;4642;51.364;6.788;2022-10-13T03:21:12;9.80;99.90
9215;DHT22;4642;51.364;6.788;2022-10-13T03:23:40;9.70;99.90
9215;DHT22;4642;51.364;6.788;2022-10-13T03:26:06;9.80;99.90
9215;DHT22;4642;51.364;6.788;2022-10-13T03:28:31;10.00;99.90
9215;DHT22;4642;51.364;6.788;2022-10-13T03:31:03;10.00;99.90
9215;DHT22;4642;51.364;6.788;2022-10-13T03:33:29;9.80;99.90
9215;DHT22;4642;51.364;6.788;2022-10-13T03:35:58;9.80;99.90
9215;DHT22;4642;51.364;6.788;2022-10-13T03:38:23;9.80;99.90
9215;DHT22;4642;51.364;6.788;2022-10-13T03:40:49;9.80;99.90
9215;DHT22;4642;51.364;6.788;2022-10-13T03:43:15;9.90;99.90
9215;DHT22;4642;51.364;6.788;2022-10-13T03:45:40;9.90;99.90
9215;DHT22;4642;51.364;6.788;2022-10-13T03:48:06;9.90;99.90
9215;DHT22;4642;51.364;6.788;2022-10-13T03:50:32;9.90;99.90
9215;DHT22;4642;51.364;6.788;2022-10-13T03:52:57;9.70;99.90
9215;DHT22;4642;51.364;6.788;2022-10-13T03:55:23;9.90;99.90
9215;DHT22;4642;51.364;6.788;2022-10-13T03:57:49;9.90;99.90
9215;DHT22;4642;51.364;6.788;2022-10-13T04:00:14;9.90;99.90
9215;DHT22;4642;51.364;6.788;2022-10-13T04:02:40;9.90;99.90
9215;DHT22;4642;51.364;6.788;2022-10-13T04:05:06;10.00;99.90
9215;DHT22;4642;51.364;6.788;2022-10-13T04:07:31;9.90;99.90
9215;DHT22;4642;51.364;6.788;2022-10-13T04:09:57;10.30;99.90
9215;DHT22;4642;51.364;6.788;2022-10-13T04:12:23;9.90;99.90
9215;DHT22;4642;51.364;6.788;2022-10-13T04:14:48;9.80;99.90
9215;DHT22;4642;51.364;6.788;2022-10-13T04:17:14;9.90;99.90
9215;DHT22;4642;51.364;6.788;2022-10-13T04:19:40;10.00;99.90
9215;DHT22;4642;51.364;6.788;2022-10-13T04:22:05;10.00;99.90
9215;DHT22;4642;51.364;6.788;2022-10-13T04:24:31;10.00;99.90
9215;DHT22;4642;51.364;6.788;2022-10-13T04:26:57;10.00;99.90
9215;DHT22;4642;51.364;6.788;2022-10-13T04:29:38;10.00;99.90
9215;DHT22;4642;51.364;6.788;2022-10-13T04:32:03;10.00;99.90
9215;DHT22;4642;51.364;6.788;2022-10-13T04:34:29;10.00;99.90
9215;DHT22;4642;51.364;6.788;2022-10-13T04:36:54;10.00;99.90
9215;DHT22;4642;51.364;6.788;2022-10-13T04:39:20;10.10;99.90
9215;DHT22;4642;51.364;6.788;2022-10-13T04:41:45;10.10;99.90
9215;DHT22;4642;51.364;6.788;2022-10-13T04:44:11;10.90;99.90
9215;DHT22;4642;51.364;6.788;2022-10-13T04:46:36;10.10;99.90
9215;DHT22;4642;51.364;6.788;2022-10-13T04:49:02;10.10;99.90
9215;DHT22;4642;51.364;6.788;2022-10-13T04:51:29;10.20;99.90
9215;DHT22;4642;51.364;6.788;2022-10-13T04:53:58;10.10;99.90
9215;DHT22;4642;51.364;6.788;2022-10-13T04:56:25;10.10;99.90
9215;DHT22;4642;51.364;6.788;2022-10-13T04:58:51;10.50;99.90
9215;DHT22;4642;51.364;6.788;2022-10-13T05:01:22;10.10;99.90
9215;DHT22;4642;51.364;6.788;2022-10-13T05:04:00;10.20;99.90
9215;DHT22;4642;51.364;6.788;2022-10-13T05:06:29;10.20;99.90
9215;DHT22;4642;51.364;6.788;2022-10-13T05:08:56;10.20;99.90
9215;DHT22;4642;51.364;6.788;2022-10-13T05:11:22;10.20;99.90
9215;DHT22;4642;51.364;6.788;2022-10-13T05:13:48;10.20;99.90
9215;DHT22;4642;51.364;6.788;2022-10-13T05:16:16;11.00;99.90
9215;DHT22;4642;51.364;6.788;2022-10-13T05:18:42;10.10;99.90
9215;DHT22;4642;51.364;6.788;2022-10-13T05:21:13;10.20;99.90
9215;DHT22;4642;51.364;6.788;2022-10-13T05:23:39;10.20;99.90
9215;DHT22;4642;51.364;6.788;2022-10-13T05:26:10;10.20;99.90
9215;DHT22;4642;51.364;6.788;2022-10-13T05:28:36;10.20;99.90
9215;DHT22;4642;51.364;6.788;2022-10-13T05:31:29;10.10;99.90
9215;DHT22;4642;51.364;6.788;2022-10-13T05:33:55;10.20;99.90
9215;DHT22;4642;51.364;6.788;2022-10-13T05:36:26;10.20;99.90
9215;DHT22;4642;51.364;6.788;2022-10-13T05:38:56;10.10;99.90
9215;DHT22;4642;51.364;6.788;2022-10-13T05:41:23;10.10;99.90
9215;DHT22;4642;51.364;6.788;2022-10-13T05:43:50;10.10;99.90
9215;DHT22;4642;51.364;6.788;2022-10-13T05:46:17;10.10;99.90
9215;DHT22;4642;51.364;6.788;2022-10-13T05:48:43;10.20;99.90
9215;DHT22;4642;51.364;6.788;2022-10-13T05:51:19;10.10;99.90
9215;DHT22;4642;51.364;6.788;2022-10-13T05:53:50;10.10;99.90
9215;DHT22;4642;51.364;6.788;2022-10-13T05:56:20;10.10;99.90
9215;DHT22;4642;51.364;6.788;2022-10-13T05:58:50;10.20;99.90
9215;DHT22;4642;51.364;6.788;2022-10-13T06:01:20;10.10;99.90
9215;DHT22;4642;51.364;6.788;2022-10-13T06:03:48;10.10;99.90
9215;DHT22;4642;51.364;6.788;2022-10-13T06:06:14;10.10;99.90
9215;DHT22;4642;51.364;6.788;2022-10-13T06:08:40;10.20;99.90
9215;DHT22;4642;51.364;6.788;2022-10-13T06:11:07;10.10;99.90
9215;DHT22;4642;51.364;6.788;2022-10-13T06:13:33;10.10;99.90
9215;DHT22;4642;51.364;6.788;2022-10-13T06:15:59;10.10;99.90
9215;DHT22;4642;51.364;6.788;2022-10-13T06:18:25;10.10;99.90
9215;DHT22;4642;51.364;6.788;2022-10-13T06:20:50;10.10;99.90
9215;DHT22;4642;51.364;6.788;2022-10-13T06:23:16;10.10;99.90
9215;DHT22;4642;51.364;6.788;2022-10-13T06:25:49;10.20;99.90
9215;DHT22;4642;51.364;6.788;2022-10-13T06:28:15;10.20;99.90
9215;DHT22;4642;51.364;6.788;2022-10-13T06:30:43;10.20;99.90
9215;DHT22;4642;51.364;6.788;2022-10-13T06:33:12;10.20;99.90
9215;DHT22;4642;51.364;6.788;2022-10-13T06:35:38;10.20;99.90
9215;DHT22;4642;51.364;6.788;2022-10-13T06:38:03;10.20;99.90
9215;DHT22;4642;51.364;6.788;2022-10-13T06:40:29;10.20;99.90
9215;DHT22;4642;51.364;6.788;2022-10-13T06:42:54;10.20;99.90
9215;DHT22;4642;51.364;6.788;2022-10-13T06:45:20;10.20;99.90
9215;DHT22;4642;51.364;6.788;2022-10-13T06:47:45;10.20;99.90
9215;DHT22;4642;51.364;6.788;2022-10-13T06:50:11;10.30;99.90
9215;DHT22;4642;51.364;6.788;2022-10-13T06:52:37;10.30;99.90
9215;DHT22;4642;51.364;6.788;2022-10-13T06:55:03;10.40;99.90
9215;DHT22;4642;51.364;6.788;2022-10-13T06:57:29;10.30;99.90
9215;DHT22;4642;51.364;6.788;2022-10-13T06:59:54;10.40;99.90
9215;DHT22;4642;51.364;6.788;2022-10-13T07:02:20;10.40;99.90
9215;DHT22;4642;51.364;6.788;2022-10-13T07:04:46;10.40;99.90
9215;DHT22;4642;51.364;6.788;2022-10-13T07:07:12;10.50;99.90
9215;DHT22;4642;51.364;6.788;2022-10-13T07:09:38;10.50;99.90
9215;DHT22;4642;51.364;6.788;2022-10-13T07:12:04;10.60;99.90
9215;DHT22;4642;51.364;6.788;2022-10-13T07:14:29;10.50;99.90
9215;DHT22;4642;51.364;6.788;2022-10-13T07:16:55;10.60;99.90
9215;DHT22;4642;51.364;6.788;2022-10-13T07:19:20;10.60;99.90
9215;DHT22;4642;51.364;6.788;2022-10-13T07:21:46;10.70;99.90
9215;DHT22;4642;51.364;6.788;2022-10-13T07:24:11;10.70;99.90
9215;DHT22;4642;51.364;6.788;2022-10-13T07:26:37;10.70;99.90
9215;DHT22;4642;51.364;6.788;2022-10-13T07:29:03;10.80;99.90
9215;DHT22;4642;51.364;6.788;2022-10-13T07:31:28;10.80;99.90
9215;DHT22;4642;51.364;6.788;2022-10-13T07:33:54;10.90;99.90
9215;DHT22;4642;51.364;6.788;2022-10-13T07:36:21;10.90;99.90
9215;DHT22;4642;51.364;6.788;2022-10-13T07:38:47;11.00;99.90
9215;DHT22;4642;51.364;6.788;2022-10-13T07:41:13;11.00;99.90
9215;DHT22;4642;51.364;6.788;2022-10-13T07:43:39;11.00;99.90
9215;DHT22;4642;51.364;6.788;2022-10-13T07:46:06;11.10;99.90
9215;DHT22;4642;51.364;6.788;2022-10-13T07:48:33;11.20;99.90
9215;DHT22;4642;51.364;6.788;2022-10-13T07:51:01;11.20;99.90
9215;DHT22;4642;51.364;6.788;2022-10-13T07:53:27;11.30;99.90
9215;DHT22;4642;51.364;6.788;2022-10-13T07:55:53;11.30;99.90
9215;DHT22;4642;51.364;6.788;2022-10-13T07:58:18;11.40;99.90
9215;DHT22;4642;51.364;6.788;2022-10-13T08:00:44;11.50;99.90
9215;DHT22;4642;51.364;6.788;2022-10-13T08:03:09;11.60;99.90
9215;DHT22;4642;51.364;6.788;2022-10-13T08:05:38;11.70;99.90
9215;DHT22;4642;51.364;6.788;2022-10-13T08:08:03;11.70;99.90
9215;DHT22;4642;51.364;6.788;2022-10-13T08:10:29;11.90;99.90
9215;DHT22;4642;51.364;6.788;2022-10-13T08:12:55;11.90;99.90
9215;DHT22;4642;51.364;6.788;2022-10-13T08:15:20;12.00;99.90
9215;DHT22;4642;51.364;6.788;2022-10-13T08:17:46;12.00;99.90
9215;DHT22;4642;51.364;6.788;2022-10-13T08:20:11;12.10;99.90
9215;DHT22;4642;51.364;6.788;2022-10-13T08:22:38;12.10;99.90
9215;DHT22;4642;51.364;6.788;2022-10-13T08:25:03;12.20;99.90
9215;DHT22;4642;51.364;6.788;2022-10-13T08:27:31;12.20;99.90
9215;DHT22;4642;51.364;6.788;2022-10-13T08:29:56;12.20;99.90
9215;DHT22;4642;51.364;6.788;2022-10-13T08:32:22;12.30;99.90
9215;DHT22;4642;51.364;6.788;2022-10-13T08:34:48;12.30;99.90
9215;DHT22;4642;51.364;6.788;2022-10-13T08:37:15;12.30;99.90
9215;DHT22;4642;51.364;6.788;2022-10-13T08:39:41;12.30;99.90
9215;DHT22;4642;51.364;6.788;2022-10-13T08:42:14;12.40;99.90
9215;DHT22;4642;51.364;6.788;2022-10-13T08:44:47;12.40;99.90
9215;DHT22;4642;51.364;6.788;2022-10-13T08:47:19;12.40;99.90
9215;DHT22;4642;51.364;6.788;2022-10-13T08:49:47;12.40;99.90
9215;DHT22;4642;51.364;6.788;2022-10-13T08:52:18;12.50;99.90
9215;DHT22;4642;51.364;6.788;2022-10-13T08:54:44;12.60;99.90
9215;DHT22;4642;51.364;6.788;2022-10-13T08:57:10;12.70;99.90
9215;DHT22;4642;51.364;6.788;2022-10-13T08:59:35;12.80;99.90
9215;DHT22;4642;51.364;6.788;2022-10-13T09:02:04;12.80;99.90
9215;DHT22;4642;51.364;6.788;2022-10-13T09:04:37;13.00;99.90
9215;DHT22;4642;51.364;6.788;2022-10-13T09:07:12;13.10;99.90
9215;DHT22;4642;51.364;6.788;2022-10-13T09:09:39;13.20;99.90
9215;DHT22;4642;51.364;6.788;2022-10-13T09:12:05;13.20;99.90
9215;DHT22;4642;51.364;6.788;2022-10-13T09:14:36;13.30;99.90
9215;DHT22;4642;51.364;6.788;2022-10-13T09:17:14;13.40;99.90
9215;DHT22;4642;51.364;6.788;2022-10-13T09:19:40;13.40;99.90
9215;DHT22;4642;51.364;6.788;2022-10-13T09:22:23;13.50;99.90
9215;DHT22;4642;51.364;6.788;2022-10-13T09:25:19;13.60;99.90
9215;DHT22;4642;51.364;6.788;2022-10-13T09:30:36;13.70;99.90
9215;DHT22;4642;51.364;6.788;2022-10-13T09:35:44;13.90;99.90
9215;DHT22;4642;51.364;6.788;2022-10-13T09:40:38;14.00;99.90
9215;DHT22;4642;51.364;6.788;2022-10-13T09:43:24;14.10;99.90
9215;DHT22;4642;51.364;6.788;2022-10-13T09:45:51;14.10;99.90
9215;DHT22;4642;51.364;6.788;2022-10-13T09:48:21;14.10;99.90
9215;DHT22;4642;51.364;6.788;2022-10-13T09:50:50;14.20;99.90
9215;DHT22;4642;51.364;6.788;2022-10-13T09:53:19;14.10;99.90
9215;DHT22;4642;51.364;6.788;2022-10-13T09:55:48;14.20;99.90
9215;DHT22;4642;51.364;6.788;2022-10-13T09:58:27;14.20;99.90
9215;DHT22;4642;51.364;6.788;2022-10-13T10:00:54;14.30;99.90
9215;DHT22;4642;51.364;6.788;2022-10-13T10:03:25;14.30;99.90
9215;DHT22;4642;51.364;6.788;2022-10-13T10:05:56;14.30;99.90
9215;DHT22;4642;51.364;6.788;2022-10-13T10:11:30;14.30;99.90
9215;DHT22;4642;51.364;6.788;2022-10-13T10:14:04;14.40;99.90
9215;DHT22;4642;51.364;6.788;2022-10-13T10:16:41;14.40;99.90
9215;DHT22;4642;51.364;6.788;2022-10-13T10:19:14;14.50;99.90
9215;DHT22;4642;51.364;6.788;2022-10-13T10:22:24;14.50;99.90
9215;DHT22;4642;51.364;6.788;2022-10-13T10:27:31;14.80;99.90
9215;DHT22;4642;51.364;6.788;2022-10-13T10:30:12;14.80;99.90
9215;DHT22;4642;51.364;6.788;2022-10-13T10:32:46;14.90;99.90
9215;DHT22;4642;51.364;6.788;2022-10-13T10:40:59;15.20;99.90
9215;DHT22;4642;51.364;6.788;2022-10-13T10:43:50;15.20;99.90
9215;DHT22;4642;51.364;6.788;2022-10-13T10:46:20;15.40;99.90
9215;DHT22;4642;51.364;6.788;2022-10-13T10:48:47;15.50;99.90
9215;DHT22;4642;51.364;6.788;2022-10-13T10:51:15;15.50;99.90
9215;DHT22;4642;51.364;6.788;2022-10-13T11:00:04;15.70;99.90
9215;DHT22;4642;51.364;6.788;2022-10-13T11:02:45;15.60;99.90
9215;DHT22;4642;51.364;6.788;2022-10-13T11:05:13;15.60;99.90
9215;DHT22;4642;51.364;6.788;2022-10-13T11:15:23;15.70;99.90
9215;DHT22;4642;51.364;6.788;2022-10-13T11:17:50;15.70;99.90
9215;DHT22;4642;51.364;6.788;2022-10-13T11:30:51;15.70;99.90
9215;DHT22;4642;51.364;6.788;2022-10-13T11:36:32;15.70;99.90
9215;DHT22;4642;51.364;6.788;2022-10-13T11:44:59;15.70;99.90
9215;DHT22;4642;51.364;6.788;2022-10-13T11:55:59;15.70;99.90
9215;DHT22;4642;51.364;6.788;2022-10-13T11:58:29;15.70;99.90
9215;DHT22;4642;51.364;6.788;2022-10-13T12:03:31;15.70;99.90
9215;DHT22;4642;51.364;6.788;2022-10-13T12:06:00;15.70;99.90
9215;DHT22;4642;51.364;6.788;2022-10-13T12:08:28;15.60;99.90
9215;DHT22;4642;51.364;6.788;2022-10-13T12:10:55;15.50;99.90
9215;DHT22;4642;51.364;6.788;2022-10-13T12:13:28;15.40;99.90
9215;DHT22;4642;51.364;6.788;2022-10-13T12:16:05;15.40;99.90
9215;DHT22;4642;51.364;6.788;2022-10-13T12:18:33;15.30;99.90
9215;DHT22;4642;51.364;6.788;2022-10-13T12:21:13;15.30;99.90
9215;DHT22;4642;51.364;6.788;2022-10-13T12:23:39;15.30;99.90
9215;DHT22;4642;51.364;6.788;2022-10-13T12:26:05;15.20;99.90
9215;DHT22;4642;51.364;6.788;2022-10-13T12:28:55;15.20;99.90
9215;DHT22;4642;51.364;6.788;2022-10-13T12:31:29;15.10;99.90
9215;DHT22;4642;51.364;6.788;2022-10-13T12:34:02;15.10;99.90
9215;DHT22;4642;51.364;6.788;2022-10-13T12:36:30;15.20;99.90
9215;DHT22;4642;51.364;6.788;2022-10-13T12:39:03;15.10;99.90
9215;DHT22;4642;51.364;6.788;2022-10-13T12:41:34;15.10;99.90
9215;DHT22;4642;51.364;6.788;2022-10-13T12:44:01;15.10;99.90
9215;DHT22;4642;51.364;6.788;2022-10-13T12:46:38;15.10;99.90
9215;DHT22;4642;51.364;6.788;2022-10-13T12:51:37;15.20;99.90
9215;DHT22;4642;51.364;6.788;2022-10-13T12:54:08;15.40;99.90
9215;DHT22;4642;51.364;6.788;2022-10-13T12:56:41;15.40;99.90
9215;DHT22;4642;51.364;6.788;2022-10-13T12:59:15;15.50;99.90
9215;DHT22;4642;51.364;6.788;2022-10-13T13:01:41;15.50;99.90
9215;DHT22;4642;51.364;6.788;2022-10-13T13:07:03;15.40;99.90
9215;DHT22;4642;51.364;6.788;2022-10-13T13:09:33;15.40;99.90
9215;DHT22;4642;51.364;6.788;2022-10-13T13:14:42;15.40;99.90
9215;DHT22;4642;51.364;6.788;2022-10-13T13:19:50;15.30;99.90
9215;DHT22;4642;51.364;6.788;2022-10-13T13:22:16;15.40;99.90
9215;DHT22;4642;51.364;6.788;2022-10-13T13:24:42;15.40;99.90
9215;DHT22;4642;51.364;6.788;2022-10-13T13:27:26;15.40;99.90
9215;DHT22;4642;51.364;6.788;2022-10-13T13:29:54;15.50;99.90
9215;DHT22;4642;51.364;6.788;2022-10-13T13:32:21;15.40;99.90
9215;DHT22;4642;51.364;6.788;2022-10-13T13:34:47;15.50;99.90
9215;DHT22;4642;51.364;6.788;2022-10-13T13:39:50;15.50;99.90
9215;DHT22;4642;51.364;6.788;2022-10-13T13:42:16;15.50;99.90
9215;DHT22;4642;51.364;6.788;2022-10-13T13:44:42;15.40;99.90
9215;DHT22;4642;51.364;6.788;2022-10-13T13:47:18;15.40;99.90
9215;DHT22;4642;51.364;6.788;2022-10-13T13:49:45;15.40;99.90
9215;DHT22;4642;51.364;6.788;2022-10-13T13:52:11;15.40;99.90
9215;DHT22;4642;51.364;6.788;2022-10-13T13:54:36;15.30;99.90
9215;DHT22;4642;51.364;6.788;2022-10-13T13:57:02;15.30;99.90
9215;DHT22;4642;51.364;6.788;2022-10-13T13:59:27;15.20;99.90
9215;DHT22;4642;51.364;6.788;2022-10-13T14:01:53;15.20;99.90
9215;DHT22;4642;51.364;6.788;2022-10-13T14:04:19;15.10;99.90
9215;DHT22;4642;51.364;6.788;2022-10-13T14:06:44;15.10;99.90
9215;DHT22;4642;51.364;6.788;2022-10-13T14:09:10;15.10;99.90
9215;DHT22;4642;51.364;6.788;2022-10-13T14:11:35;15.00;99.90
9215;DHT22;4642;51.364;6.788;2022-10-13T14:14:01;15.00;99.90
9215;DHT22;4642;51.364;6.788;2022-10-13T14:16:27;14.90;99.90
9215;DHT22;4642;51.364;6.788;2022-10-13T14:18:55;14.90;99.90
9215;DHT22;4642;51.364;6.788;2022-10-13T14:21:20;14.90;99.90
9215;DHT22;4642;51.364;6.788;2022-10-13T14:23:46;14.80;99.90
9215;DHT22;4642;51.364;6.788;2022-10-13T14:26:12;14.80;99.90
9215;DHT22;4642;51.364;6.788;2022-10-13T14:28:40;14.70;99.90
9215;DHT22;4642;51.364;6.788;2022-10-13T14:31:06;14.70;99.90
9215;DHT22;4642;51.364;6.788;2022-10-13T14:33:32;14.70;99.90
9215;DHT22;4642;51.364;6.788;2022-10-13T14:36:01;14.70;99.90
9215;DHT22;4642;51.364;6.788;2022-10-13T14:38:27;14.70;99.90
9215;DHT22;4642;51.364;6.788;2022-10-13T14:40:58;14.70;99.90
9215;DHT22;4642;51.364;6.788;2022-10-13T14:43:24;14.70;99.90
9215;DHT22;4642;51.364;6.788;2022-10-13T14:45:49;14.70;99.90
9215;DHT22;4642;51.364;6.788;2022-10-13T14:48:15;14.70;99.90
9215;DHT22;4642;51.364;6.788;2022-10-13T14:50:40;14.70;99.90
9215;DHT22;4642;51.364;6.788;2022-10-13T14:53:06;14.70;99.90
9215;DHT22;4642;51.364;6.788;2022-10-13T14:55:34;14.60;99.90
9215;DHT22;4642;51.364;6.788;2022-10-13T14:57:59;14.60;99.90
9215;DHT22;4642;51.364;6.788;2022-10-13T15:00:25;14.60;99.90
9215;DHT22;4642;51.364;6.788;2022-10-13T15:02:50;14.60;99.90
9215;DHT22;4642;51.364;6.788;2022-10-13T15:05:16;14.60;99.90
9215;DHT22;4642;51.364;6.788;2022-10-13T15:07:42;14.60;99.90
9215;DHT22;4642;51.364;6.788;2022-10-13T15:10:08;14.60;99.90
9215;DHT22;4642;51.364;6.788;2022-10-13T15:12:33;14.50;99.90
9215;DHT22;4642;51.364;6.788;2022-10-13T15:14:59;14.50;99.90
9215;DHT22;4642;51.364;6.788;2022-10-13T15:17:24;14.50;99.90
9215;DHT22;4642;51.364;6.788;2022-10-13T15:19:50;14.50;99.90
9215;DHT22;4642;51.364;6.788;2022-10-13T15:22:16;14.50;99.90
9215;DHT22;4642;51.364;6.788;2022-10-13T15:24:41;14.50;99.90
9215;DHT22;4642;51.364;6.788;2022-10-13T15:27:07;14.50;99.90
9215;DHT22;4642;51.364;6.788;2022-10-13T15:29:33;14.40;99.90
9215;DHT22;4642;51.364;6.788;2022-10-13T15:32:10;14.40;99.90
9215;DHT22;4642;51.364;6.788;2022-10-13T15:34:39;14.40;99.90
9215;DHT22;4642;51.364;6.788;2022-10-13T15:37:05;14.40;99.90
9215;DHT22;4642;51.364;6.788;2022-10-13T15:39:31;14.40;99.90
9215;DHT22;4642;51.364;6.788;2022-10-13T15:41:56;14.40;99.90
9215;DHT22;4642;51.364;6.788;2022-10-13T15:44:24;14.40;99.90
9215;DHT22;4642;51.364;6.788;2022-10-13T15:46:50;14.40;99.90
9215;DHT22;4642;51.364;6.788;2022-10-13T15:49:15;14.40;99.90
9215;DHT22;4642;51.364;6.788;2022-10-13T15:51:41;14.40;99.90
9215;DHT22;4642;51.364;6.788;2022-10-13T15:54:06;14.40;99.90
9215;DHT22;4642;51.364;6.788;2022-10-13T15:56:32;14.30;99.90
9215;DHT22;4642;51.364;6.788;2022-10-13T15:58:57;14.30;99.90
9215;DHT22;4642;51.364;6.788;2022-10-13T16:01:23;14.30;99.90
9215;DHT22;4642;51.364;6.788;2022-10-13T16:03:52;14.30;99.90
9215;DHT22;4642;51.364;6.788;2022-10-13T16:06:18;14.20;99.90
9215;DHT22;4642;51.364;6.788;2022-10-13T16:08:46;14.20;99.90
9215;DHT22;4642;51.364;6.788;2022-10-13T16:11:16;14.20;99.90
9215;DHT22;4642;51.364;6.788;2022-10-13T16:13:49;14.20;99.90
9215;DHT22;4642;51.364;6.788;2022-10-13T16:16:16;14.20;99.90
9215;DHT22;4642;51.364;6.788;2022-10-13T16:18:42;14.20;99.90
9215;DHT22;4642;51.364;6.788;2022-10-13T16:21:14;14.20;99.90
9215;DHT22;4642;51.364;6.788;2022-10-13T16:23:40;14.20;99.90
9215;DHT22;4642;51.364;6.788;2022-10-13T16:26:06;14.10;99.90
9215;DHT22;4642;51.364;6.788;2022-10-13T16:28:33;14.10;99.90
9215;DHT22;4642;51.364;6.788;2022-10-13T16:31:06;14.10;99.90
9215;DHT22;4642;51.364;6.788;2022-10-13T16:33:36;14.10;99.90
9215;DHT22;4642;51.364;6.788;2022-10-13T16:36:09;14.10;99.90
9215;DHT22;4642;51.364;6.788;2022-10-13T16:38:35;14.10;99.90
9215;DHT22;4642;51.364;6.788;2022-10-13T16:41:05;14.10;99.90
9215;DHT22;4642;51.364;6.788;2022-10-13T16:43:31;14.10;99.90
9215;DHT22;4642;51.364;6.788;2022-10-13T16:45:58;14.10;99.90
9215;DHT22;4642;51.364;6.788;2022-10-13T16:48:24;14.10;99.90
9215;DHT22;4642;51.364;6.788;2022-10-13T16:50:50;14.10;99.90
9215;DHT22;4642;51.364;6.788;2022-10-13T16:53:16;14.00;99.90
9215;DHT22;4642;51.364;6.788;2022-10-13T16:55:42;14.00;99.90
9215;DHT22;4642;51.364;6.788;2022-10-13T16:58:07;14.00;99.90
9215;DHT22;4642;51.364;6.788;2022-10-13T17:00:35;14.00;99.90
9215;DHT22;4642;51.364;6.788;2022-10-13T17:03:00;13.90;99.90
9215;DHT22;4642;51.364;6.788;2022-10-13T17:05:26;13.90;99.90
9215;DHT22;4642;51.364;6.788;2022-10-13T17:07:52;13.90;99.90
9215;DHT22;4642;51.364;6.788;2022-10-13T17:10:17;13.90;99.90
9215;DHT22;4642;51.364;6.788;2022-10-13T17:12:43;13.90;99.90
9215;DHT22;4642;51.364;6.788;2022-10-13T17:15:08;13.90;99.90
9215;DHT22;4642;51.364;6.788;2022-10-13T17:17:34;13.80;99.90
9215;DHT22;4642;51.364;6.788;2022-10-13T17:20:00;13.80;99.90
9215;DHT22;4642;51.364;6.788;2022-10-13T17:22:25;13.80;99.90
9215;DHT22;4642;51.364;6.788;2022-10-13T17:24:51;13.80;99.90
9215;DHT22;4642;51.364;6.788;2022-10-13T17:27:16;13.80;99.90
9215;DHT22;4642;51.364;6.788;2022-10-13T17:29:42;13.80;99.90
9215;DHT22;4642;51.364;6.788;2022-10-13T17:32:08;13.70;99.90
9215;DHT22;4642;51.364;6.788;2022-10-13T17:34:33;13.70;99.90
9215;DHT22;4642;51.364;6.788;2022-10-13T17:37:01;13.70;99.90
9215;DHT22;4642;51.364;6.788;2022-10-13T17:39:27;13.70;99.90
9215;DHT22;4642;51.364;6.788;2022-10-13T17:41:52;13.70;99.90
9215;DHT22;4642;51.364;6.788;2022-10-13T17:44:18;13.70;99.90
9215;DHT22;4642;51.364;6.788;2022-10-13T17:46:46;13.60;99.90
9215;DHT22;4642;51.364;6.788;2022-10-13T17:49:12;13.60;99.90